sensor_id;sensor_type;location;lat;lon;timestamp;temperature;humidity
21772;DHT22;11047;47.904;8.110;2023-04-25T00:01:31;5.00;99.90
21772;DHT22;11047;47.904;8.110;2023-04-25T00:04:00;5.00;99.90
21772;DHT22;11047;47.904;8.110;2023-04-25T00:06:28;5.00;99.90
21772;DHT22;11047;47.904;8.110;2023-04-25T00:08:55;4.90;99.90
21772;DHT22;11047;47.904;8.110;2023-04-25T00:11:22;5.00;99.90
21772;DHT22;11047;47.904;8.110;2023-04-25T00:13:49;4.90;99.90
21772;DHT22;11047;47.904;8.110;2023-04-25T00:16:17;5.00;99.90
21772;DHT22;11047;47.904;8.110;2023-04-25T00:18:44;4.90;99.90
21772;DHT22;11047;47.904;8.110;2023-04-25T00:21:18;4.90;99.90
21772;DHT22;11047;47.904;8.110;2023-04-25T00:23:45;4.90;99.90
21772;DHT22;11047;47.904;8.110;2023-04-25T00:26:12;5.00;99.90
21772;DHT22;11047;47.904;8.110;2023-04-25T00:28:39;4.70;99.90
21772;DHT22;11047;47.904;8.110;2023-04-25T00:31:06;4.60;99.90
21772;DHT22;11047;47.904;8.110;2023-04-25T00:33:33;4.50;99.90
21772;DHT22;11047;47.904;8.110;2023-04-25T00:36:00;5.20;99.90
21772;DHT22;11047;47.904;8.110;2023-04-25T00:38:28;4.40;99.90
21772;DHT22;11047;47.904;8.110;2023-04-25T00:40:55;4.50;99.90
21772;DHT22;11047;47.904;8.110;2023-04-25T00:43:23;4.50;99.90
21772;DHT22;11047;47.904;8.110;2023-04-25T00:45:52;4.50;99.90
21772;DHT22;11047;47.904;8.110;2023-04-25T00:48:21;4.60;99.90
21772;DHT22;11047;47.904;8.110;2023-04-25T00:50:52;4.50;99.90
21772;DHT22;11047;47.904;8.110;2023-04-25T00:53:20;4.50;99.90
21772;DHT22;11047;47.904;8.110;2023-04-25T00:55:48;4.60;99.90
21772;DHT22;11047;47.904;8.110;2023-04-25T00:58:16;4.60;99.90
21772;DHT22;11047;47.904;8.110;2023-04-25T01:00:44;4.50;99.90
21772;DHT22;11047;47.904;8.110;2023-04-25T01:03:12;4.40;99.90
21772;DHT22;11047;47.904;8.110;2023-04-25T01:05:40;4.30;99.90
21772;DHT22;11047;47.904;8.110;2023-04-25T01:08:08;4.20;99.90
21772;DHT22;11047;47.904;8.110;2023-04-25T01:10:36;4.10;99.90
21772;DHT22;11047;47.904;8.110;2023-04-25T01:13:04;4.00;99.90
21772;DHT22;11047;47.904;8.110;2023-04-25T01:15:31;4.10;99.90
21772;DHT22;11047;47.904;8.110;2023-04-25T01:17:58;4.00;99.90
21772;DHT22;11047;47.904;8.110;2023-04-25T01:20:26;4.00;99.90
21772;DHT22;11047;47.904;8.110;2023-04-25T01:22:55;4.00;99.90
21772;DHT22;11047;47.904;8.110;2023-04-25T01:25:22;4.00;99.90
21772;DHT22;11047;47.904;8.110;2023-04-25T01:27:49;4.00;99.90
21772;DHT22;11047;47.904;8.110;2023-04-25T01:30:17;4.00;99.90
21772;DHT22;11047;47.904;8.110;2023-04-25T01:32:44;4.00;99.90
21772;DHT22;11047;47.904;8.110;2023-04-25T01:35:11;3.90;99.90
21772;DHT22;11047;47.904;8.110;2023-04-25T01:37:39;3.90;99.90
21772;DHT22;11047;47.904;8.110;2023-04-25T01:40:09;3.80;99.90
21772;DHT22;11047;47.904;8.110;2023-04-25T01:42:39;3.70;99.90
21772;DHT22;11047;47.904;8.110;2023-04-25T01:45:07;3.70;99.90
21772;DHT22;11047;47.904;8.110;2023-04-25T01:47:34;3.50;99.90
21772;DHT22;11047;47.904;8.110;2023-04-25T01:50:02;3.50;99.90
21772;DHT22;11047;47.904;8.110;2023-04-25T01:52:29;3.50;99.90
21772;DHT22;11047;47.904;8.110;2023-04-25T01:54:57;3.50;99.90
21772;DHT22;11047;47.904;8.110;2023-04-25T01:57:25;3.30;99.90
21772;DHT22;11047;47.904;8.110;2023-04-25T01:59:53;3.20;99.90
21772;DHT22;11047;47.904;8.110;2023-04-25T02:02:22;3.30;99.90
21772;DHT22;11047;47.904;8.110;2023-04-25T02:04:48;3.30;99.90
21772;DHT22;11047;47.904;8.110;2023-04-25T02:07:15;3.30;99.90
21772;DHT22;11047;47.904;8.110;2023-04-25T02:09:42;3.30;99.90
21772;DHT22;11047;47.904;8.110;2023-04-25T02:12:09;3.30;99.90
21772;DHT22;11047;47.904;8.110;2023-04-25T02:14:38;3.30;99.90
21772;DHT22;11047;47.904;8.110;2023-04-25T02:17:05;3.30;99.90
21772;DHT22;11047;47.904;8.110;2023-04-25T02:19:32;3.20;99.90
21772;DHT22;11047;47.904;8.110;2023-04-25T02:21:59;3.10;99.90
21772;DHT22;11047;47.904;8.110;2023-04-25T02:24:26;3.20;99.90
21772;DHT22;11047;47.904;8.110;2023-04-25T02:26:54;3.20;99.90
21772;DHT22;11047;47.904;8.110;2023-04-25T02:29:22;3.20;99.90
21772;DHT22;11047;47.904;8.110;2023-04-25T02:31:50;3.30;99.90
21772;DHT22;11047;47.904;8.110;2023-04-25T02:34:17;3.30;99.90
21772;DHT22;11047;47.904;8.110;2023-04-25T02:36:43;3.20;99.90
21772;DHT22;11047;47.904;8.110;2023-04-25T02:39:10;3.20;99.90
21772;DHT22;11047;47.904;8.110;2023-04-25T02:41:37;3.10;99.90
21772;DHT22;11047;47.904;8.110;2023-04-25T02:44:04;3.00;99.90
21772;DHT22;11047;47.904;8.110;2023-04-25T02:46:31;3.00;99.90
21772;DHT22;11047;47.904;8.110;2023-04-25T02:48:59;3.00;99.90
21772;DHT22;11047;47.904;8.110;2023-04-25T02:51:26;3.00;99.90
21772;DHT22;11047;47.904;8.110;2023-04-25T02:53:53;3.00;99.90
21772;DHT22;11047;47.904;8.110;2023-04-25T02:56:20;3.10;99.90
21772;DHT22;11047;47.904;8.110;2023-04-25T02:58:47;3.10;99.90
21772;DHT22;11047;47.904;8.110;2023-04-25T03:01:14;3.00;99.90
21772;DHT22;11047;47.904;8.110;2023-04-25T03:03:40;3.00;99.90
21772;DHT22;11047;47.904;8.110;2023-04-25T03:06:09;2.90;99.90
21772;DHT22;11047;47.904;8.110;2023-04-25T03:08:36;2.90;99.90
21772;DHT22;11047;47.904;8.110;2023-04-25T03:11:03;2.90;99.90
21772;DHT22;11047;47.904;8.110;2023-04-25T03:13:29;2.90;99.90
21772;DHT22;11047;47.904;8.110;2023-04-25T03:15:56;2.90;99.90
21772;DHT22;11047;47.904;8.110;2023-04-25T03:18:23;2.90;99.90
21772;DHT22;11047;47.904;8.110;2023-04-25T03:20:50;2.90;99.90
21772;DHT22;11047;47.904;8.110;2023-04-25T03:23:18;2.90;99.90
21772;DHT22;11047;47.904;8.110;2023-04-25T03:25:45;2.80;99.90
21772;DHT22;11047;47.904;8.110;2023-04-25T03:28:12;2.80;99.90
21772;DHT22;11047;47.904;8.110;2023-04-25T03:30:39;2.80;99.90
21772;DHT22;11047;47.904;8.110;2023-04-25T03:33:06;2.80;99.90
21772;DHT22;11047;47.904;8.110;2023-04-25T03:35:33;2.80;99.90
21772;DHT22;11047;47.904;8.110;2023-04-25T03:37:59;2.80;99.90
21772;DHT22;11047;47.904;8.110;2023-04-25T03:40:28;2.80;99.90
21772;DHT22;11047;47.904;8.110;2023-04-25T03:42:54;2.60;99.90
21772;DHT22;11047;47.904;8.110;2023-04-25T03:45:21;2.70;99.90
21772;DHT22;11047;47.904;8.110;2023-04-25T03:47:48;2.70;99.90
21772;DHT22;11047;47.904;8.110;2023-04-25T03:50:15;2.60;99.90
21772;DHT22;11047;47.904;8.110;2023-04-25T03:52:42;2.60;99.90
21772;DHT22;11047;47.904;8.110;2023-04-25T03:55:09;2.60;99.90
21772;DHT22;11047;47.904;8.110;2023-04-25T03:57:38;2.60;99.90
21772;DHT22;11047;47.904;8.110;2023-04-25T04:00:06;2.50;99.90
21772;DHT22;11047;47.904;8.110;2023-04-25T04:02:33;2.40;99.90
21772;DHT22;11047;47.904;8.110;2023-04-25T04:05:01;2.30;99.90
21772;DHT22;11047;47.904;8.110;2023-04-25T04:07:28;2.20;99.90
21772;DHT22;11047;47.904;8.110;2023-04-25T04:09:57;2.10;99.90
21772;DHT22;11047;47.904;8.110;2023-04-25T04:12:24;2.10;99.90
21772;DHT22;11047;47.904;8.110;2023-04-25T04:14:52;2.20;99.90
21772;DHT22;11047;47.904;8.110;2023-04-25T04:17:19;2.10;99.90
21772;DHT22;11047;47.904;8.110;2023-04-25T04:19:46;2.10;99.90
21772;DHT22;11047;47.904;8.110;2023-04-25T04:22:13;2.20;99.90
21772;DHT22;11047;47.904;8.110;2023-04-25T04:24:40;2.20;99.90
21772;DHT22;11047;47.904;8.110;2023-04-25T04:27:09;2.20;99.90
21772;DHT22;11047;47.904;8.110;2023-04-25T04:29:38;2.20;99.90
21772;DHT22;11047;47.904;8.110;2023-04-25T04:32:06;2.10;99.90
21772;DHT22;11047;47.904;8.110;2023-04-25T04:34:34;2.00;99.90
21772;DHT22;11047;47.904;8.110;2023-04-25T04:37:01;2.00;99.90
21772;DHT22;11047;47.904;8.110;2023-04-25T04:39:28;2.00;99.90
21772;DHT22;11047;47.904;8.110;2023-04-25T04:41:55;2.10;99.90
21772;DHT22;11047;47.904;8.110;2023-04-25T04:44:22;2.20;99.90
21772;DHT22;11047;47.904;8.110;2023-04-25T04:46:48;2.30;99.90
21772;DHT22;11047;47.904;8.110;2023-04-25T04:49:17;2.30;99.90
21772;DHT22;11047;47.904;8.110;2023-04-25T04:51:44;2.40;99.90
21772;DHT22;11047;47.904;8.110;2023-04-25T04:54:11;2.50;99.90
21772;DHT22;11047;47.904;8.110;2023-04-25T04:56:38;2.50;99.90
21772;DHT22;11047;47.904;8.110;2023-04-25T04:59:05;2.60;99.90
21772;DHT22;11047;47.904;8.110;2023-04-25T05:01:32;2.60;99.90
21772;DHT22;11047;47.904;8.110;2023-04-25T05:04:00;2.60;99.90
21772;DHT22;11047;47.904;8.110;2023-04-25T05:06:30;2.60;99.90
21772;DHT22;11047;47.904;8.110;2023-04-25T05:08:58;2.50;99.90
21772;DHT22;11047;47.904;8.110;2023-04-25T05:11:25;2.50;99.90
21772;DHT22;11047;47.904;8.110;2023-04-25T05:13:52;2.50;99.90
21772;DHT22;11047;47.904;8.110;2023-04-25T05:16:20;2.40;99.90
21772;DHT22;11047;47.904;8.110;2023-04-25T05:18:47;2.50;99.90
21772;DHT22;11047;47.904;8.110;2023-04-25T05:21:14;2.60;99.90
21772;DHT22;11047;47.904;8.110;2023-04-25T05:23:43;2.70;99.90
21772;DHT22;11047;47.904;8.110;2023-04-25T05:26:10;2.80;99.90
21772;DHT22;11047;47.904;8.110;2023-04-25T05:28:39;2.90;99.90
21772;DHT22;11047;47.904;8.110;2023-04-25T05:31:07;2.90;99.90
21772;DHT22;11047;47.904;8.110;2023-04-25T05:33:34;3.00;99.90
21772;DHT22;11047;47.904;8.110;2023-04-25T05:36:01;3.10;99.90
21772;DHT22;11047;47.904;8.110;2023-04-25T05:38:27;3.10;99.90
21772;DHT22;11047;47.904;8.110;2023-04-25T05:40:57;3.20;99.90
21772;DHT22;11047;47.904;8.110;2023-04-25T05:43:24;3.30;99.90
21772;DHT22;11047;47.904;8.110;2023-04-25T05:45:50;3.30;99.90
21772;DHT22;11047;47.904;8.110;2023-04-25T05:48:17;3.30;99.90
21772;DHT22;11047;47.904;8.110;2023-04-25T05:50:44;3.30;99.90
21772;DHT22;11047;47.904;8.110;2023-04-25T05:53:11;3.30;99.90
21772;DHT22;11047;47.904;8.110;2023-04-25T05:55:38;4.00;99.90
21772;DHT22;11047;47.904;8.110;2023-04-25T05:58:06;3.30;99.90
21772;DHT22;11047;47.904;8.110;2023-04-25T06:00:33;3.40;99.90
21772;DHT22;11047;47.904;8.110;2023-04-25T06:03:00;3.50;99.90
21772;DHT22;11047;47.904;8.110;2023-04-25T06:05:28;3.50;99.90
21772;DHT22;11047;47.904;8.110;2023-04-25T06:07:56;3.50;99.90
21772;DHT22;11047;47.904;8.110;2023-04-25T06:10:25;3.50;99.90
21772;DHT22;11047;47.904;8.110;2023-04-25T06:13:08;3.40;99.90
21772;DHT22;11047;47.904;8.110;2023-04-25T06:15:37;3.40;99.90
21772;DHT22;11047;47.904;8.110;2023-04-25T06:18:06;3.30;99.90
21772;DHT22;11047;47.904;8.110;2023-04-25T06:21:03;2.90;99.90
21772;DHT22;11047;47.904;8.110;2023-04-25T06:23:32;3.30;99.90
21772;DHT22;11047;47.904;8.110;2023-04-25T06:26:01;3.40;99.90
21772;DHT22;11047;47.904;8.110;2023-04-25T06:28:31;3.10;99.90
21772;DHT22;11047;47.904;8.110;2023-04-25T06:31:00;3.80;99.90
21772;DHT22;11047;47.904;8.110;2023-04-25T06:33:30;3.10;99.90
21772;DHT22;11047;47.904;8.110;2023-04-25T06:35:58;3.10;99.90
21772;DHT22;11047;47.904;8.110;2023-04-25T06:38:25;3.00;99.90
21772;DHT22;11047;47.904;8.110;2023-04-25T06:40:53;3.40;99.90
21772;DHT22;11047;47.904;8.110;2023-04-25T06:43:21;3.00;99.90
21772;DHT22;11047;47.904;8.110;2023-04-25T06:45:52;3.10;99.90
21772;DHT22;11047;47.904;8.110;2023-04-25T06:48:28;3.20;99.90
21772;DHT22;11047;47.904;8.110;2023-04-25T06:51:09;3.10;99.90
21772;DHT22;11047;47.904;8.110;2023-04-25T06:54:05;3.20;99.90
21772;DHT22;11047;47.904;8.110;2023-04-25T06:56:34;3.10;99.90
21772;DHT22;11047;47.904;8.110;2023-04-25T06:59:01;3.00;99.90
21772;DHT22;11047;47.904;8.110;2023-04-25T07:01:31;2.50;99.90
21772;DHT22;11047;47.904;8.110;2023-04-25T07:03:58;3.30;99.90
21772;DHT22;11047;47.904;8.110;2023-04-25T07:06:27;3.20;99.90
21772;DHT22;11047;47.904;8.110;2023-04-25T07:08:54;3.30;99.90
21772;DHT22;11047;47.904;8.110;2023-04-25T07:11:22;3.40;99.90
21772;DHT22;11047;47.904;8.110;2023-04-25T07:13:50;3.40;99.90
21772;DHT22;11047;47.904;8.110;2023-04-25T07:16:19;3.30;99.90
21772;DHT22;11047;47.904;8.110;2023-04-25T07:18:48;3.20;99.90
21772;DHT22;11047;47.904;8.110;2023-04-25T07:21:16;3.20;99.90
21772;DHT22;11047;47.904;8.110;2023-04-25T07:23:44;3.30;99.90
21772;DHT22;11047;47.904;8.110;2023-04-25T07:26:13;3.30;99.90
21772;DHT22;11047;47.904;8.110;2023-04-25T07:28:40;3.30;99.90
21772;DHT22;11047;47.904;8.110;2023-04-25T07:31:09;3.40;99.90
21772;DHT22;11047;47.904;8.110;2023-04-25T07:33:37;3.40;99.90
21772;DHT22;11047;47.904;8.110;2023-04-25T07:36:11;3.40;99.90
21772;DHT22;11047;47.904;8.110;2023-04-25T07:38:54;3.30;99.90
21772;DHT22;11047;47.904;8.110;2023-04-25T07:41:22;3.60;99.90
21772;DHT22;11047;47.904;8.110;2023-04-25T07:43:50;3.50;99.90
21772;DHT22;11047;47.904;8.110;2023-04-25T07:46:21;3.00;99.90
21772;DHT22;11047;47.904;8.110;2023-04-25T07:48:51;3.50;99.90
21772;DHT22;11047;47.904;8.110;2023-04-25T07:51:21;3.60;99.90
21772;DHT22;11047;47.904;8.110;2023-04-25T07:53:49;3.60;99.90
21772;DHT22;11047;47.904;8.110;2023-04-25T07:56:17;3.60;99.90
21772;DHT22;11047;47.904;8.110;2023-04-25T07:58:46;4.10;99.90
21772;DHT22;11047;47.904;8.110;2023-04-25T08:01:17;3.70;99.90
21772;DHT22;11047;47.904;8.110;2023-04-25T08:04:01;3.70;99.90
21772;DHT22;11047;47.904;8.110;2023-04-25T08:06:30;3.70;99.90
21772;DHT22;11047;47.904;8.110;2023-04-25T08:08:57;3.80;99.90
21772;DHT22;11047;47.904;8.110;2023-04-25T08:11:26;3.70;99.90
21772;DHT22;11047;47.904;8.110;2023-04-25T08:13:53;3.30;99.90
21772;DHT22;11047;47.904;8.110;2023-04-25T08:16:21;3.70;99.90
21772;DHT22;11047;47.904;8.110;2023-04-25T08:18:50;3.20;99.90
21772;DHT22;11047;47.904;8.110;2023-04-25T08:21:19;3.70;99.90
21772;DHT22;11047;47.904;8.110;2023-04-25T08:23:49;3.90;99.90
21772;DHT22;11047;47.904;8.110;2023-04-25T08:26:17;3.90;99.90
21772;DHT22;11047;47.904;8.110;2023-04-25T08:28:46;3.90;99.90
21772;DHT22;11047;47.904;8.110;2023-04-25T08:31:16;3.90;99.90
21772;DHT22;11047;47.904;8.110;2023-04-25T08:33:45;3.70;99.90
21772;DHT22;11047;47.904;8.110;2023-04-25T08:36:13;3.80;99.90
21772;DHT22;11047;47.904;8.110;2023-04-25T08:38:49;3.80;99.90
21772;DHT22;11047;47.904;8.110;2023-04-25T08:41:18;3.90;99.90
21772;DHT22;11047;47.904;8.110;2023-04-25T08:43:48;3.90;99.90
21772;DHT22;11047;47.904;8.110;2023-04-25T08:46:21;3.90;99.90
21772;DHT22;11047;47.904;8.110;2023-04-25T08:48:54;3.90;99.90
21772;DHT22;11047;47.904;8.110;2023-04-25T08:55:00;3.90;99.90
21772;DHT22;11047;47.904;8.110;2023-04-25T08:57:35;3.80;99.90
21772;DHT22;11047;47.904;8.110;2023-04-25T09:00:23;3.90;99.90
21772;DHT22;11047;47.904;8.110;2023-04-25T09:03:03;3.80;99.90
21772;DHT22;11047;47.904;8.110;2023-04-25T09:05:42;3.80;99.90
21772;DHT22;11047;47.904;8.110;2023-04-25T09:08:11;3.90;99.90
21772;DHT22;11047;47.904;8.110;2023-04-25T09:10:40;3.80;99.90
21772;DHT22;11047;47.904;8.110;2023-04-25T09:13:08;3.90;99.90
21772;DHT22;11047;47.904;8.110;2023-04-25T09:15:47;3.90;99.90
21772;DHT22;11047;47.904;8.110;2023-04-25T09:18:22;3.90;99.90
21772;DHT22;11047;47.904;8.110;2023-04-25T09:20:49;5.00;99.90
21772;DHT22;11047;47.904;8.110;2023-04-25T09:23:16;4.20;99.90
21772;DHT22;11047;47.904;8.110;2023-04-25T09:25:48;3.80;99.90
21772;DHT22;11047;47.904;8.110;2023-04-25T09:28:16;5.00;99.90
21772;DHT22;11047;47.904;8.110;2023-04-25T09:30:43;4.70;99.90
21772;DHT22;11047;47.904;8.110;2023-04-25T09:33:12;4.70;99.90
21772;DHT22;11047;47.904;8.110;2023-04-25T09:35:41;4.10;99.90
21772;DHT22;11047;47.904;8.110;2023-04-25T09:38:10;3.90;99.90
21772;DHT22;11047;47.904;8.110;2023-04-25T09:40:41;3.90;99.90
21772;DHT22;11047;47.904;8.110;2023-04-25T09:43:18;4.00;99.90
21772;DHT22;11047;47.904;8.110;2023-04-25T09:45:46;4.00;99.90
21772;DHT22;11047;47.904;8.110;2023-04-25T09:48:17;4.00;99.90
21772;DHT22;11047;47.904;8.110;2023-04-25T09:51:04;4.20;99.90
21772;DHT22;11047;47.904;8.110;2023-04-25T09:53:33;4.50;99.90
21772;DHT22;11047;47.904;8.110;2023-04-25T09:56:07;4.70;99.90
21772;DHT22;11047;47.904;8.110;2023-04-25T10:22:06;4.70;99.90
21772;DHT22;11047;47.904;8.110;2023-04-25T10:24:37;4.70;99.90
21772;DHT22;11047;47.904;8.110;2023-04-25T10:46:57;7.60;99.90
21772;DHT22;11047;47.904;8.110;2023-04-25T10:53:33;8.30;99.90
21772;DHT22;11047;47.904;8.110;2023-04-25T10:56:56;8.70;99.90
21772;DHT22;11047;47.904;8.110;2023-04-25T10:59:48;8.50;99.90
21772;DHT22;11047;47.904;8.110;2023-04-25T11:43:31;6.10;99.90
21772;DHT22;11047;47.904;8.110;2023-04-25T11:46:34;6.20;99.90
21772;DHT22;11047;47.904;8.110;2023-04-25T11:49:37;6.20;99.90
21772;DHT22;11047;47.904;8.110;2023-04-25T11:52:39;6.30;99.90
21772;DHT22;11047;47.904;8.110;2023-04-25T11:55:08;6.10;99.90
21772;DHT22;11047;47.904;8.110;2023-04-25T11:57:40;6.50;99.90
21772;DHT22;11047;47.904;8.110;2023-04-25T12:00:14;6.40;99.90
21772;DHT22;11047;47.904;8.110;2023-04-25T12:02:43;7.40;99.90
21772;DHT22;11047;47.904;8.110;2023-04-25T12:05:12;7.60;99.90
21772;DHT22;11047;47.904;8.110;2023-04-25T12:07:41;8.10;99.90
21772;DHT22;11047;47.904;8.110;2023-04-25T12:10:10;8.00;99.90
21772;DHT22;11047;47.904;8.110;2023-04-25T12:12:43;8.20;99.90
21772;DHT22;11047;47.904;8.110;2023-04-25T12:15:15;8.00;99.90
21772;DHT22;11047;47.904;8.110;2023-04-25T12:17:45;7.80;99.90
21772;DHT22;11047;47.904;8.110;2023-04-25T12:20:14;7.60;99.90
21772;DHT22;11047;47.904;8.110;2023-04-25T12:22:44;7.50;99.90
21772;DHT22;11047;47.904;8.110;2023-04-25T12:25:12;7.40;99.90
21772;DHT22;11047;47.904;8.110;2023-04-25T12:27:40;7.10;99.90
21772;DHT22;11047;47.904;8.110;2023-04-25T12:30:10;6.80;99.90
21772;DHT22;11047;47.904;8.110;2023-04-25T12:32:39;6.50;99.90
21772;DHT22;11047;47.904;8.110;2023-04-25T12:35:07;6.50;99.90
21772;DHT22;11047;47.904;8.110;2023-04-25T12:37:34;6.60;99.90
21772;DHT22;11047;47.904;8.110;2023-04-25T12:40:01;6.60;99.90
21772;DHT22;11047;47.904;8.110;2023-04-25T12:42:29;6.70;99.90
21772;DHT22;11047;47.904;8.110;2023-04-25T12:44:57;6.80;99.90
21772;DHT22;11047;47.904;8.110;2023-04-25T12:47:24;7.00;99.90
21772;DHT22;11047;47.904;8.110;2023-04-25T12:49:52;7.20;99.90
21772;DHT22;11047;47.904;8.110;2023-04-25T12:52:19;7.30;99.90
21772;DHT22;11047;47.904;8.110;2023-04-25T12:54:46;7.50;99.90
21772;DHT22;11047;47.904;8.110;2023-04-25T12:57:13;7.90;99.90
21772;DHT22;11047;47.904;8.110;2023-04-25T12:59:40;8.00;99.90
21772;DHT22;11047;47.904;8.110;2023-04-25T13:02:07;7.80;99.90
21772;DHT22;11047;47.904;8.110;2023-04-25T13:04:34;7.70;99.90
21772;DHT22;11047;47.904;8.110;2023-04-25T13:07:03;7.60;99.90
21772;DHT22;11047;47.904;8.110;2023-04-25T13:09:30;7.70;99.90
21772;DHT22;11047;47.904;8.110;2023-04-25T13:11:57;7.70;99.90
21772;DHT22;11047;47.904;8.110;2023-04-25T13:14:24;7.60;99.90
21772;DHT22;11047;47.904;8.110;2023-04-25T13:16:52;7.80;99.90
21772;DHT22;11047;47.904;8.110;2023-04-25T13:19:20;7.90;99.90
21772;DHT22;11047;47.904;8.110;2023-04-25T13:21:46;7.90;99.90
21772;DHT22;11047;47.904;8.110;2023-04-25T13:24:15;7.80;99.90
21772;DHT22;11047;47.904;8.110;2023-04-25T13:26:42;7.90;99.90
21772;DHT22;11047;47.904;8.110;2023-04-25T13:29:09;8.00;99.90
21772;DHT22;11047;47.904;8.110;2023-04-25T13:31:36;7.80;99.90
21772;DHT22;11047;47.904;8.110;2023-04-25T13:34:03;7.60;99.90
21772;DHT22;11047;47.904;8.110;2023-04-25T13:36:30;7.80;99.90
21772;DHT22;11047;47.904;8.110;2023-04-25T13:38:57;7.90;99.90
21772;DHT22;11047;47.904;8.110;2023-04-25T13:41:25;8.00;99.90
21772;DHT22;11047;47.904;8.110;2023-04-25T13:43:53;8.10;99.90
21772;DHT22;11047;47.904;8.110;2023-04-25T13:46:20;8.20;99.90
21772;DHT22;11047;47.904;8.110;2023-04-25T13:48:47;8.60;99.90
21772;DHT22;11047;47.904;8.110;2023-04-25T13:51:16;8.60;99.90
21772;DHT22;11047;47.904;8.110;2023-04-25T13:53:43;8.60;99.90
21772;DHT22;11047;47.904;8.110;2023-04-25T13:56:11;8.70;99.90
21772;DHT22;11047;47.904;8.110;2023-04-25T13:58:39;8.70;99.90
21772;DHT22;11047;47.904;8.110;2023-04-25T14:01:06;8.80;99.90
21772;DHT22;11047;47.904;8.110;2023-04-25T14:03:33;8.80;99.90
21772;DHT22;11047;47.904;8.110;2023-04-25T14:06:01;9.10;99.90
21772;DHT22;11047;47.904;8.110;2023-04-25T14:08:28;9.30;99.90
21772;DHT22;11047;47.904;8.110;2023-04-25T14:10:56;8.90;99.90
21772;DHT22;11047;47.904;8.110;2023-04-25T14:13:23;8.60;99.90
21772;DHT22;11047;47.904;8.110;2023-04-25T14:15:52;8.60;99.90
21772;DHT22;11047;47.904;8.110;2023-04-25T14:18:19;8.60;99.90
21772;DHT22;11047;47.904;8.110;2023-04-25T14:20:46;8.60;99.90
21772;DHT22;11047;47.904;8.110;2023-04-25T14:23:13;8.30;99.90
21772;DHT22;11047;47.904;8.110;2023-04-25T14:25:40;8.20;99.90
21772;DHT22;11047;47.904;8.110;2023-04-25T14:28:09;8.20;99.90
21772;DHT22;11047;47.904;8.110;2023-04-25T14:30:36;8.20;99.90
21772;DHT22;11047;47.904;8.110;2023-04-25T14:33:05;8.00;99.90
21772;DHT22;11047;47.904;8.110;2023-04-25T14:35:32;7.90;99.90
21772;DHT22;11047;47.904;8.110;2023-04-25T14:37:59;7.70;99.90
21772;DHT22;11047;47.904;8.110;2023-04-25T14:40:26;7.60;99.90
21772;DHT22;11047;47.904;8.110;2023-04-25T14:42:53;7.60;99.90
21772;DHT22;11047;47.904;8.110;2023-04-25T14:45:20;7.60;99.90
21772;DHT22;11047;47.904;8.110;2023-04-25T14:47:47;7.60;99.90
21772;DHT22;11047;47.904;8.110;2023-04-25T14:50:16;7.60;99.90
21772;DHT22;11047;47.904;8.110;2023-04-25T14:52:43;7.80;99.90
21772;DHT22;11047;47.904;8.110;2023-04-25T14:55:11;7.80;99.90
21772;DHT22;11047;47.904;8.110;2023-04-25T14:57:39;7.70;99.90
21772;DHT22;11047;47.904;8.110;2023-04-25T15:00:07;7.60;99.90
21772;DHT22;11047;47.904;8.110;2023-04-25T15:02:35;7.60;99.90
21772;DHT22;11047;47.904;8.110;2023-04-25T15:05:03;7.60;99.90
21772;DHT22;11047;47.904;8.110;2023-04-25T15:07:31;7.40;99.90
21772;DHT22;11047;47.904;8.110;2023-04-25T15:10:00;7.30;99.90
21772;DHT22;11047;47.904;8.110;2023-04-25T15:12:27;7.50;99.90
21772;DHT22;11047;47.904;8.110;2023-04-25T15:14:54;7.40;99.90
21772;DHT22;11047;47.904;8.110;2023-04-25T15:17:21;7.40;99.90
21772;DHT22;11047;47.904;8.110;2023-04-25T15:19:48;7.50;99.90
21772;DHT22;11047;47.904;8.110;2023-04-25T15:22:15;7.50;99.90
21772;DHT22;11047;47.904;8.110;2023-04-25T15:24:43;7.40;99.90
21772;DHT22;11047;47.904;8.110;2023-04-25T15:27:10;7.60;99.90
21772;DHT22;11047;47.904;8.110;2023-04-25T15:29:38;7.30;99.90
21772;DHT22;11047;47.904;8.110;2023-04-25T15:32:05;7.30;99.90
21772;DHT22;11047;47.904;8.110;2023-04-25T15:34:32;7.30;99.90
21772;DHT22;11047;47.904;8.110;2023-04-25T15:37:00;7.20;99.90
21772;DHT22;11047;47.904;8.110;2023-04-25T15:39:27;7.20;99.90
21772;DHT22;11047;47.904;8.110;2023-04-25T15:41:55;7.00;99.90
21772;DHT22;11047;47.904;8.110;2023-04-25T15:44:23;7.00;99.90
21772;DHT22;11047;47.904;8.110;2023-04-25T15:46:50;7.20;99.90
21772;DHT22;11047;47.904;8.110;2023-04-25T15:49:18;7.10;99.90
21772;DHT22;11047;47.904;8.110;2023-04-25T15:51:46;7.10;99.90
21772;DHT22;11047;47.904;8.110;2023-04-25T15:54:13;7.10;99.90
21772;DHT22;11047;47.904;8.110;2023-04-25T15:56:40;7.00;99.90
21772;DHT22;11047;47.904;8.110;2023-04-25T15:59:09;6.70;99.90
21772;DHT22;11047;47.904;8.110;2023-04-25T16:01:36;6.80;99.90
21772;DHT22;11047;47.904;8.110;2023-04-25T16:04:05;6.90;99.90
21772;DHT22;11047;47.904;8.110;2023-04-25T16:06:32;6.50;99.90
21772;DHT22;11047;47.904;8.110;2023-04-25T16:08:59;6.80;99.90
21772;DHT22;11047;47.904;8.110;2023-04-25T16:11:26;6.30;99.90
21772;DHT22;11047;47.904;8.110;2023-04-25T16:13:54;6.20;99.90
21772;DHT22;11047;47.904;8.110;2023-04-25T16:16:23;6.10;99.90
21772;DHT22;11047;47.904;8.110;2023-04-25T16:18:50;6.20;99.90
21772;DHT22;11047;47.904;8.110;2023-04-25T16:21:17;5.80;99.90
21772;DHT22;11047;47.904;8.110;2023-04-25T16:23:45;5.60;99.90
21772;DHT22;11047;47.904;8.110;2023-04-25T16:26:12;5.60;99.90
21772;DHT22;11047;47.904;8.110;2023-04-25T16:28:39;5.70;99.90
21772;DHT22;11047;47.904;8.110;2023-04-25T16:31:06;5.50;99.90
21772;DHT22;11047;47.904;8.110;2023-04-25T16:33:35;6.10;99.90
21772;DHT22;11047;47.904;8.110;2023-04-25T16:36:02;6.30;99.90
21772;DHT22;11047;47.904;8.110;2023-04-25T16:38:29;5.70;99.90
21772;DHT22;11047;47.904;8.110;2023-04-25T16:40:56;5.80;99.90
21772;DHT22;11047;47.904;8.110;2023-04-25T16:43:23;6.10;99.90
21772;DHT22;11047;47.904;8.110;2023-04-25T16:45:50;5.70;99.90
21772;DHT22;11047;47.904;8.110;2023-04-25T16:48:17;5.90;99.90
21772;DHT22;11047;47.904;8.110;2023-04-25T16:50:50;5.80;99.90
21772;DHT22;11047;47.904;8.110;2023-04-25T16:53:17;6.10;99.90
21772;DHT22;11047;47.904;8.110;2023-04-25T16:55:46;6.10;99.90
21772;DHT22;11047;47.904;8.110;2023-04-25T16:58:14;6.20;99.90
21772;DHT22;11047;47.904;8.110;2023-04-25T17:00:41;6.10;99.90
21772;DHT22;11047;47.904;8.110;2023-04-25T17:03:09;6.30;99.90
21772;DHT22;11047;47.904;8.110;2023-04-25T17:05:36;6.30;99.90
21772;DHT22;11047;47.904;8.110;2023-04-25T17:08:04;6.30;99.90
21772;DHT22;11047;47.904;8.110;2023-04-25T17:10:32;6.20;99.90
21772;DHT22;11047;47.904;8.110;2023-04-25T17:12:59;6.10;99.90
21772;DHT22;11047;47.904;8.110;2023-04-25T17:15:27;6.00;99.90
21772;DHT22;11047;47.904;8.110;2023-04-25T17:17:54;5.80;99.90
21772;DHT22;11047;47.904;8.110;2023-04-25T17:20:21;6.10;99.90
21772;DHT22;11047;47.904;8.110;2023-04-25T17:22:48;5.70;99.90
21772;DHT22;11047;47.904;8.110;2023-04-25T17:25:16;5.70;99.90
21772;DHT22;11047;47.904;8.110;2023-04-25T17:27:43;5.70;99.90